createdAt,value
2019-04-23T00:02:16.611Z,13.03
2019-04-23T00:04:35.475Z,13.00
2019-04-23T00:07:32.187Z,12.94
2019-04-23T00:09:46.782Z,12.85
2019-04-23T00:12:23.787Z,12.80
2019-04-23T00:14:55.237Z,12.82
2019-04-23T00:17:26.789Z,12.76
2019-04-23T00:19:47.327Z,12.77
2019-04-23T00:22:26.525Z,12.60
2019-04-23T00:27:35.783Z,12.60
2019-04-23T00:30:03.941Z,12.58
2019-04-23T00:32:37.923Z,12.61
2019-04-23T00:35:05.997Z,12.49
2019-04-23T00:37:35.587Z,12.47
2019-04-23T00:40:03.155Z,12.36
2019-04-23T00:42:41.488Z,12.27
2019-04-23T00:45:07.195Z,12.24
2019-04-23T00:52:38.898Z,12.12
2019-04-23T00:55:14.842Z,12.20
2019-04-23T00:57:40.610Z,12.15
2019-04-23T01:00:24.539Z,12.13
2019-04-23T01:02:47.432Z,12.07
2019-04-23T01:05:18.715Z,12.08
2019-04-23T01:07:45.193Z,11.95
2019-04-23T01:10:25.512Z,11.99
2019-04-23T01:12:51.263Z,11.90
2019-04-23T01:15:26.076Z,11.90
2019-04-23T01:17:57.648Z,11.90
2019-04-23T01:20:21.060Z,11.90
2019-04-23T01:22:35.737Z,11.81
2019-04-23T01:25:13.582Z,11.78
2019-04-23T01:28:04.447Z,11.67
2019-04-23T01:30:38.722Z,11.73
2019-04-23T01:33:05.916Z,11.58
2019-04-23T01:35:36.351Z,11.63
2019-04-23T01:38:06.147Z,11.58
2019-04-23T01:40:36.672Z,11.50
2019-04-23T01:43:07.894Z,11.50
2019-04-23T01:45:32.695Z,11.46
2019-04-23T01:48:04.678Z,11.44
2019-04-23T01:50:50.085Z,11.48
2019-04-23T01:55:46.543Z,11.39
2019-04-23T01:58:32.245Z,11.37
2019-04-23T02:00:47.807Z,11.34
2019-04-23T02:05:48.319Z,11.34
2019-04-23T02:08:32.025Z,11.26
2019-04-23T02:11:01.554Z,11.26
2019-04-23T02:13:24.895Z,11.31
2019-04-23T02:15:47.433Z,11.22
2019-04-23T02:18:20.590Z,11.11
2019-04-23T02:20:55.536Z,11.11
2019-04-23T02:23:31.281Z,11.15
2019-04-23T02:25:55.533Z,11.09
2019-04-23T02:28:32.665Z,11.01
2019-04-23T02:36:07.681Z,10.74
2019-04-23T02:41:12.939Z,10.99
2019-04-23T02:43:26.534Z,10.92
2019-04-23T02:48:43.830Z,10.73
2019-04-23T02:51:10.805Z,10.73
2019-04-23T02:58:42.191Z,10.71
2019-04-23T03:01:25.744Z,10.69
2019-04-23T03:03:51.311Z,10.78
2019-04-23T03:06:27.401Z,10.70
2019-04-23T03:14:00.398Z,10.73
2019-04-23T03:16:49.927Z,10.70
2019-04-23T03:19:08.294Z,10.63
2019-04-23T03:24:28.450Z,10.70
2019-04-23T03:35:16.299Z,10.58
2019-04-23T03:39:17.781Z,10.55
2019-04-23T03:41:54.472Z,10.51
2019-04-23T03:44:30.031Z,10.50
2019-04-23T03:46:57.186Z,10.49
2019-04-23T03:49:19.696Z,10.50
2019-04-23T03:54:33.787Z,10.41
2019-04-23T04:09:34.130Z,10.49
2019-04-23T04:11:55.118Z,10.50
2019-04-23T04:14:44.826Z,10.47
2019-04-23T04:17:03.660Z,10.48
2019-04-23T04:24:36.813Z,10.45
2019-04-23T04:29:44.410Z,10.47
2019-04-23T04:32:02.638Z,10.47
2019-04-23T04:42:09.528Z,10.50
2019-04-23T04:49:50.900Z,10.14
2019-04-23T04:54:24.204Z,10.55
2019-04-23T04:57:27.871Z,10.58
2019-04-23T04:59:51.236Z,10.62
2019-04-23T05:02:20.506Z,10.67
2019-04-23T05:04:52.533Z,10.71
2019-04-23T05:09:48.444Z,11.07
2019-04-23T05:14:52.592Z,11.19
2019-04-23T05:17:16.834Z,11.43
2019-04-23T05:19:45.861Z,12.69
2019-04-23T05:22:16.590Z,13.58
2019-04-23T05:24:39.864Z,14.11
2019-04-23T05:27:10.236Z,13.95
2019-04-23T05:29:46.612Z,14.04
2019-04-23T05:32:14.898Z,14.16
2019-04-23T05:34:40.229Z,14.35
2019-04-23T05:37:11.566Z,14.58
2019-04-23T05:39:49.904Z,14.88
2019-04-23T05:42:19.918Z,14.92
2019-04-23T05:44:50.295Z,14.53
2019-04-23T05:47:20.367Z,14.76
2019-04-23T05:49:57.020Z,15.04
2019-04-23T05:52:27.894Z,15.27
2019-04-23T05:57:14.346Z,14.80
2019-04-23T05:59:49.914Z,14.78
2019-04-23T06:02:20.369Z,14.47
2019-04-23T06:04:49.622Z,14.75
2019-04-23T06:10:02.876Z,15.27
2019-04-23T06:12:26.597Z,15.65
2019-04-23T06:14:57.657Z,15.72
2019-04-23T06:17:25.425Z,16.44
2019-04-23T06:20:07.853Z,16.14
2019-04-23T06:25:00.965Z,15.30
2019-04-23T06:29:58.880Z,15.28
2019-04-23T06:32:34.310Z,15.74
2019-04-23T06:34:56.836Z,15.34
2019-04-23T06:40:01.503Z,15.45
2019-04-23T06:42:29.278Z,15.82
2019-04-23T06:44:59.878Z,15.72
2019-04-23T06:52:31.549Z,15.72
2019-04-23T06:55:09.328Z,15.73
2019-04-23T06:57:58.792Z,16.23
2019-04-23T07:00:07.916Z,16.46
2019-04-23T07:02:39.145Z,16.40
2019-04-23T07:05:15.978Z,16.41
2019-04-23T07:10:11.515Z,16.70
2019-04-23T07:12:44.848Z,16.04
2019-04-23T07:15:16.384Z,16.19
2019-04-23T07:17:44.827Z,15.96
2019-04-23T07:20:15.223Z,16.52
2019-04-23T07:22:43.210Z,16.64
2019-04-23T07:25:14.122Z,16.82
2019-04-23T07:27:45.780Z,16.94
2019-04-23T07:35:14.202Z,16.90
2019-04-23T07:37:48.819Z,16.86
2019-04-23T07:42:58.254Z,16.60
2019-04-23T07:48:16.598Z,17.16
2019-04-23T07:53:23.384Z,17.57
2019-04-23T08:00:58.224Z,17.02
2019-04-23T08:03:31.229Z,17.09
2019-04-23T08:05:55.478Z,17.41
2019-04-23T08:08:30.421Z,17.92
2019-04-23T08:13:47.692Z,17.59
2019-04-23T08:16:32.889Z,17.19
2019-04-23T08:24:02.233Z,17.18
2019-04-23T08:26:50.817Z,17.38
2019-04-23T08:32:10.746Z,17.64
2019-04-23T08:34:36.908Z,17.82
2019-04-23T08:39:38.359Z,17.51
2019-04-23T08:44:47.082Z,17.50
2019-04-23T08:49:48.800Z,17.48
2019-04-23T08:52:25.582Z,17.69
2019-04-23T08:57:14.544Z,17.80
2019-04-23T08:59:47.586Z,17.86
2019-04-23T09:02:31.239Z,17.84
2019-04-23T09:05:06.341Z,18.02
2019-04-23T09:09:50.969Z,18.54
2019-04-23T09:12:27.006Z,18.47
2019-04-23T09:14:51.214Z,18.45
2019-04-23T09:17:20.798Z,18.32
2019-04-23T09:20:07.061Z,18.12
2019-04-23T09:25:00.456Z,18.55
2019-04-23T09:30:07.656Z,18.27
2019-04-23T09:32:36.915Z,18.70
2019-04-23T09:35:06.012Z,19.07
2019-04-23T09:37:49.186Z,19.16
2019-04-23T09:40:28.549Z,19.30
2019-04-23T09:42:54.370Z,19.10
2019-04-23T09:45:26.965Z,19.03
2019-04-23T09:50:38.402Z,18.99
2019-04-23T09:53:13.101Z,19.24
2019-04-23T10:00:59.105Z,19.54
2019-04-23T10:03:13.607Z,19.67
2019-04-23T10:05:33.658Z,19.31
2019-04-23T10:08:03.077Z,19.45
2019-04-23T10:10:24.226Z,19.63
2019-04-23T10:13:02.222Z,19.35
2019-04-23T10:15:45.727Z,19.57
2019-04-23T10:18:22.425Z,19.77
2019-04-23T10:20:52.309Z,19.73
2019-04-23T10:23:23.091Z,19.70
2019-04-23T10:25:52.338Z,19.52
2019-04-23T10:28:26.547Z,19.54
2019-04-23T10:30:56.586Z,19.42
2019-04-23T10:33:25.569Z,19.58
2019-04-23T10:36:02.184Z,19.61
2019-04-23T10:38:26.695Z,19.89
2019-04-23T10:40:56.210Z,19.50
2019-04-23T10:43:25.158Z,19.77
2019-04-23T10:46:21.827Z,19.69
2019-04-23T10:49:13.673Z,20.03
2019-04-23T10:54:32.915Z,19.60
2019-04-23T10:56:48.831Z,20.49
2019-04-23T10:59:38.891Z,20.61
2019-04-23T11:07:25.407Z,20.01
2019-04-23T11:12:37.131Z,19.91
2019-04-23T11:17:46.002Z,20.14
2019-04-23T11:20:25.822Z,20.36
2019-04-23T11:22:45.402Z,20.25
2019-04-23T11:30:27.499Z,20.15
2019-04-23T11:35:31.078Z,20.40
2019-04-23T11:38:09.120Z,20.27
2019-04-23T11:40:21.206Z,20.75
2019-04-23T11:50:31.740Z,20.37
2019-04-23T11:52:56.463Z,20.45
2019-04-23T11:55:32.856Z,20.32
2019-04-23T12:00:33.607Z,21.03
2019-04-23T12:02:59.160Z,20.79
2019-04-23T12:05:58.213Z,20.83
2019-04-23T12:08:37.784Z,20.78
2019-04-23T12:14:02.542Z,20.97
2019-04-23T12:16:30.239Z,20.67
2019-04-23T12:19:25.471Z,20.54
2019-04-23T12:21:43.842Z,20.62
2019-04-23T12:24:04.570Z,20.59
2019-04-23T12:26:38.941Z,20.83
2019-04-23T12:29:04.040Z,20.68
2019-04-23T12:31:34.906Z,20.89
2019-04-23T12:36:37.268Z,21.00
2019-04-23T12:39:08.794Z,20.47
2019-04-23T12:41:36.068Z,20.60
2019-04-23T12:44:22.359Z,20.71
2019-04-23T12:46:38.171Z,20.85
2019-04-23T12:49:28.371Z,20.50
2019-04-23T12:51:41.540Z,20.73
2019-04-23T12:54:06.433Z,20.62
2019-04-23T12:56:53.696Z,20.89
2019-04-23T12:59:12.451Z,20.73
2019-04-23T13:01:42.504Z,20.73
2019-04-23T13:04:11.618Z,20.96
2019-04-23T13:06:39.157Z,21.37
2019-04-23T13:09:21.757Z,21.76
2019-04-23T13:11:43.588Z,21.57
2019-04-23T13:14:17.388Z,21.78
2019-04-23T13:16:53.873Z,21.59
2019-04-23T13:19:26.030Z,21.67
2019-04-23T13:22:00.332Z,21.41
2019-04-23T13:24:28.845Z,21.46
2019-04-23T13:27:02.501Z,21.38
2019-04-23T13:29:37.921Z,21.25
2019-04-23T13:31:58.985Z,21.24
2019-04-23T13:34:42.866Z,21.15
2019-04-23T13:37:05.230Z,21.62
2019-04-23T13:39:33.248Z,21.68
2019-04-23T13:42:05.159Z,21.82
2019-04-23T13:44:42.031Z,21.57
2019-04-23T13:47:10.621Z,21.51
2019-04-23T13:49:43.178Z,21.12
2019-04-23T13:52:26.845Z,21.18
2019-04-23T14:02:17.308Z,21.16
2019-04-23T14:04:45.245Z,21.09
2019-04-23T14:07:14.898Z,21.08
2019-04-23T14:10:04.485Z,21.01
2019-04-23T14:12:18.201Z,21.14
2019-04-23T14:19:55.963Z,21.13
2019-04-23T14:22:43.483Z,21.16
2019-04-23T14:25:04.873Z,21.56
2019-04-23T14:32:46.891Z,21.22
2019-04-23T14:35:04.594Z,21.35
2019-04-23T14:37:21.723Z,21.25
2019-04-23T14:40:05.769Z,21.28
2019-04-23T14:42:47.944Z,21.45
2019-04-23T14:45:22.554Z,21.45
2019-04-23T14:50:27.907Z,21.51
2019-04-23T14:52:57.029Z,21.66
2019-04-23T14:58:00.506Z,21.35
2019-04-23T15:08:02.090Z,21.72
2019-04-23T15:10:34.267Z,21.66
2019-04-23T15:13:00.022Z,21.48
2019-04-23T15:15:35.745Z,21.33
2019-04-23T15:18:09.308Z,21.17
2019-04-23T15:20:33.129Z,21.35
2019-04-23T15:23:25.458Z,21.47
2019-04-23T15:30:38.776Z,21.20
2019-04-23T15:33:23.688Z,21.26
2019-04-23T15:40:41.810Z,21.07
2019-04-23T15:45:44.855Z,21.24
2019-04-23T15:48:19.206Z,21.25
2019-04-23T15:50:43.322Z,21.31
2019-04-23T15:53:04.782Z,21.17
2019-04-23T15:58:29.981Z,20.99
2019-04-23T16:00:48.226Z,20.93
2019-04-23T16:02:51.482Z,20.90
2019-04-23T16:05:21.681Z,20.93
2019-04-23T16:08:11.469Z,20.87
2019-04-23T16:10:54.538Z,20.85
2019-04-23T16:13:18.385Z,20.94
2019-04-23T16:15:54.333Z,20.91
2019-04-23T16:18:35.229Z,20.93
2019-04-23T16:21:04.849Z,20.86
2019-04-23T16:23:31.623Z,20.83
2019-04-23T16:25:58.521Z,20.75
2019-04-23T16:28:50.432Z,20.78
2019-04-23T16:31:07.582Z,20.78
2019-04-23T16:33:31.987Z,20.73
2019-04-23T16:38:38.285Z,20.71
2019-04-23T16:41:09.907Z,20.58
2019-04-23T16:43:35.401Z,20.52
2019-04-23T16:48:47.840Z,20.42
2019-04-23T16:51:17.983Z,20.34
2019-04-23T16:53:56.348Z,20.41
2019-04-23T17:01:22.904Z,20.34
2019-04-23T17:06:24.746Z,20.41
2019-04-23T17:09:15.698Z,20.43
2019-04-23T17:11:42.572Z,20.41
2019-04-23T17:14:13.552Z,20.30
2019-04-23T17:16:41.964Z,20.36
2019-04-23T17:21:53.317Z,20.31
2019-04-23T17:27:08.220Z,20.32
2019-04-23T17:32:16.586Z,20.09
2019-04-23T17:35:11.629Z,20.26
2019-04-23T17:37:37.355Z,20.20
2019-04-23T17:40:34.217Z,20.16
2019-04-23T17:43:06.240Z,20.16
2019-04-23T17:45:38.527Z,20.09
2019-04-23T17:48:17.717Z,20.11
2019-04-23T17:51:00.568Z,20.02
2019-04-23T17:53:25.288Z,19.95
2019-04-23T17:56:26.348Z,19.84
2019-04-23T18:01:22.216Z,19.78
2019-04-23T18:03:57.485Z,19.72
2019-04-23T18:06:32.155Z,19.69
2019-04-23T18:09:08.404Z,19.64
2019-04-23T18:11:50.111Z,19.63
2019-04-23T18:14:08.305Z,19.65
2019-04-23T18:19:12.367Z,19.52
2019-04-23T18:24:23.069Z,19.41
2019-04-23T18:26:51.618Z,19.39
2019-04-23T18:29:36.440Z,19.17
2019-04-23T18:32:16.996Z,19.14
2019-04-23T18:34:59.698Z,19.14
2019-04-23T18:37:19.302Z,19.05
2019-04-23T18:39:47.096Z,18.91
2019-04-23T18:42:22.370Z,18.97
2019-04-23T18:44:48.486Z,18.85
2019-04-23T18:52:29.573Z,18.62
2019-04-23T18:54:48.961Z,18.67
2019-04-23T18:57:27.843Z,18.57
2019-04-23T18:59:55.104Z,18.57
2019-04-23T19:02:24.080Z,18.50
2019-04-23T19:05:17.956Z,18.51
2019-04-23T19:10:36.173Z,18.36
2019-04-23T19:13:07.055Z,18.30
2019-04-23T19:15:38.114Z,18.31
2019-04-23T19:18:06.221Z,18.20
2019-04-23T19:25:38.646Z,18.13
2019-04-23T19:28:30.747Z,18.07
2019-04-23T19:31:05.340Z,18.09
2019-04-23T19:33:35.254Z,18.08
2019-04-23T19:38:33.354Z,17.97
2019-04-23T19:43:49.495Z,17.91
2019-04-23T19:48:42.350Z,17.91
2019-04-23T19:58:46.766Z,17.76
2019-04-23T20:06:32.813Z,17.61
2019-04-23T20:11:09.586Z,17.60
2019-04-23T20:16:15.779Z,17.42
2019-04-23T20:21:03.758Z,17.30
2019-04-23T20:29:02.507Z,17.31
2019-04-23T20:33:20.928Z,17.20
2019-04-23T20:34:11.486Z,17.23
2019-04-23T20:39:17.269Z,17.25
2019-04-23T20:47:06.365Z,17.05
2019-04-23T20:49:38.815Z,16.97
2019-04-23T20:57:30.570Z,16.88
2019-04-23T20:59:58.201Z,16.82
2019-04-23T21:03:08.257Z,16.84
2019-04-23T21:07:54.440Z,16.68
2019-04-23T21:10:27.761Z,16.68
2019-04-23T21:13:02.720Z,16.69
2019-04-23T21:15:18.351Z,16.70
2019-04-23T21:22:57.126Z,16.56
2019-04-23T21:25:14.816Z,16.55
2019-04-23T21:27:44.909Z,16.45
2019-04-23T21:30:58.537Z,16.48
2019-04-23T21:33:11.851Z,16.54
2019-04-23T21:49:16.522Z,16.32
2019-04-23T21:53:58.680Z,16.18
2019-04-23T21:59:17.599Z,16.07
2019-04-23T22:01:44.976Z,16.05
2019-04-23T22:04:25.024Z,16.13
2019-04-23T22:11:56.994Z,15.98
2019-04-23T22:14:22.088Z,15.96
2019-04-23T22:19:26.707Z,15.88
2019-04-23T22:21:54.436Z,15.88
2019-04-23T22:24:12.309Z,15.82
2019-04-23T22:34:22.255Z,15.63
2019-04-23T22:37:12.734Z,15.59
2019-04-23T22:39:39.882Z,15.52
2019-04-23T22:42:01.450Z,15.64
2019-04-23T22:44:37.315Z,15.55
2019-04-23T22:54:32.489Z,15.49
2019-04-23T22:59:48.706Z,15.38
2019-04-23T23:02:29.005Z,15.32
2019-04-23T23:04:59.794Z,15.23
2019-04-23T23:07:22.365Z,15.16
2019-04-23T23:09:56.448Z,15.30
2019-04-23T23:12:21.341Z,15.19
2019-04-23T23:14:54.760Z,15.14
2019-04-23T23:17:20.623Z,15.13
2019-04-23T23:20:03.702Z,15.05
2019-04-23T23:22:20.109Z,14.99
2019-04-23T23:24:57.913Z,15.09
2019-04-23T23:27:25.151Z,15.03
2019-04-23T23:32:31.417Z,14.96
2019-04-23T23:35:08.219Z,14.96
2019-04-23T23:37:36.817Z,15.13
2019-04-23T23:40:15.333Z,15.04
2019-04-23T23:42:42.477Z,14.99
2019-04-23T23:45:21.623Z,14.97
2019-04-23T23:47:39.451Z,14.96
2019-04-23T23:52:51.664Z,15.04
2019-04-23T23:57:41.546Z,15.12
